Terminal Aerodrome Forecast
Issued by NWS

Home | Current Version | Previous Version | Text Only | Print | Product List | Glossary Off
Versions: 1 2 3 4 5 6 7 8 9 10 11 12 13 14 15 16 17 18 19 20 21 22 23 24 25 26 27 28 29 30 31 32

000
FTUS43 KABR 211407 AAA
TAFMBG
TAF AMD
KMBG 211407Z 2114/2212 05010KT P6SM VCSH BKN150
     FM211600 03013G18KT P6SM SCT150
     FM212300 07009KT P6SM FEW250
     FM220500 11008KT P6SM SKC=

USA.gov is the U.S. government's official web portal to all federal, state and local government web resources and services.